sensor_id;sensor_type;location;lat;lon;timestamp;temperature;humidity
42365;DHT22;28498;54.400;18.566;2022-10-26T00:01:07;11.40;99.90
42365;DHT22;28498;54.400;18.566;2022-10-26T00:03:35;11.40;99.90
42365;DHT22;28498;54.400;18.566;2022-10-26T00:06:10;11.50;99.90
42365;DHT22;28498;54.400;18.566;2022-10-26T00:08:37;11.60;99.90
42365;DHT22;28498;54.400;18.566;2022-10-26T00:11:05;11.60;99.90
42365;DHT22;28498;54.400;18.566;2022-10-26T00:13:33;11.60;99.90
42365;DHT22;28498;54.400;18.566;2022-10-26T00:16:01;11.70;99.90
42365;DHT22;28498;54.400;18.566;2022-10-26T00:18:28;11.70;99.90
42365;DHT22;28498;54.400;18.566;2022-10-26T00:20:55;11.80;99.90
42365;DHT22;28498;54.400;18.566;2022-10-26T00:23:28;11.90;99.90
42365;DHT22;28498;54.400;18.566;2022-10-26T00:25:57;12.10;99.90
42365;DHT22;28498;54.400;18.566;2022-10-26T00:28:24;12.00;99.90
42365;DHT22;28498;54.400;18.566;2022-10-26T00:30:51;12.00;99.90
42365;DHT22;28498;54.400;18.566;2022-10-26T00:33:18;12.00;99.90
42365;DHT22;28498;54.400;18.566;2022-10-26T00:35:54;12.00;99.90
42365;DHT22;28498;54.400;18.566;2022-10-26T00:38:21;12.00;99.90
42365;DHT22;28498;54.400;18.566;2022-10-26T00:40:49;12.10;99.90
42365;DHT22;28498;54.400;18.566;2022-10-26T00:43:37;12.10;99.90
42365;DHT22;28498;54.400;18.566;2022-10-26T00:46:07;12.10;99.90
42365;DHT22;28498;54.400;18.566;2022-10-26T00:48:38;12.20;99.90
42365;DHT22;28498;54.400;18.566;2022-10-26T00:51:12;12.30;99.90
42365;DHT22;28498;54.400;18.566;2022-10-26T00:53:41;12.20;99.90
42365;DHT22;28498;54.400;18.566;2022-10-26T00:56:09;12.20;99.90
42365;DHT22;28498;54.400;18.566;2022-10-26T00:58:36;12.30;99.90
42365;DHT22;28498;54.400;18.566;2022-10-26T01:01:04;12.20;99.90
42365;DHT22;28498;54.400;18.566;2022-10-26T01:03:32;12.20;99.90
42365;DHT22;28498;54.400;18.566;2022-10-26T01:06:01;12.20;99.90
42365;DHT22;28498;54.400;18.566;2022-10-26T01:08:29;12.30;99.90
42365;DHT22;28498;54.400;18.566;2022-10-26T01:10:57;12.30;99.90
42365;DHT22;28498;54.400;18.566;2022-10-26T01:13:27;12.30;99.90
42365;DHT22;28498;54.400;18.566;2022-10-26T01:16:32;12.40;99.90
42365;DHT22;28498;54.400;18.566;2022-10-26T01:30:20;12.40;99.90
42365;DHT22;28498;54.400;18.566;2022-10-26T01:32:56;12.50;99.90
42365;DHT22;28498;54.400;18.566;2022-10-26T01:38:33;12.40;99.90
42365;DHT22;28498;54.400;18.566;2022-10-26T01:41:12;12.40;99.90
42365;DHT22;28498;54.400;18.566;2022-10-26T01:43:44;12.30;99.90
42365;DHT22;28498;54.400;18.566;2022-10-26T01:46:15;12.20;99.90
42365;DHT22;28498;54.400;18.566;2022-10-26T01:48:43;12.10;99.90
42365;DHT22;28498;54.400;18.566;2022-10-26T01:51:11;12.10;99.90
42365;DHT22;28498;54.400;18.566;2022-10-26T01:53:45;12.00;99.90
42365;DHT22;28498;54.400;18.566;2022-10-26T01:56:35;11.90;99.90
42365;DHT22;28498;54.400;18.566;2022-10-26T02:02:06;11.70;99.90
42365;DHT22;28498;54.400;18.566;2022-10-26T02:07:33;11.60;99.90
42365;DHT22;28498;54.400;18.566;2022-10-26T02:18:34;11.70;99.90
42365;DHT22;28498;54.400;18.566;2022-10-26T02:21:10;11.80;99.90
42365;DHT22;28498;54.400;18.566;2022-10-26T02:23:40;11.80;99.90
42365;DHT22;28498;54.400;18.566;2022-10-26T02:26:09;11.90;99.90
42365;DHT22;28498;54.400;18.566;2022-10-26T02:28:42;11.90;99.90
42365;DHT22;28498;54.400;18.566;2022-10-26T02:31:12;11.90;99.90
42365;DHT22;28498;54.400;18.566;2022-10-26T02:33:43;11.90;99.90
42365;DHT22;28498;54.400;18.566;2022-10-26T02:36:15;11.80;99.90
42365;DHT22;28498;54.400;18.566;2022-10-26T02:38:44;11.80;99.90
42365;DHT22;28498;54.400;18.566;2022-10-26T02:41:13;11.90;99.90
42365;DHT22;28498;54.400;18.566;2022-10-26T02:43:47;11.80;99.90
42365;DHT22;28498;54.400;18.566;2022-10-26T02:46:19;11.80;99.90
42365;DHT22;28498;54.400;18.566;2022-10-26T02:48:48;11.80;99.90
42365;DHT22;28498;54.400;18.566;2022-10-26T02:51:40;11.90;99.90
42365;DHT22;28498;54.400;18.566;2022-10-26T02:54:12;11.90;99.90
42365;DHT22;28498;54.400;18.566;2022-10-26T02:56:59;11.90;99.90
42365;DHT22;28498;54.400;18.566;2022-10-26T02:59:31;11.90;99.90
42365;DHT22;28498;54.400;18.566;2022-10-26T03:02:00;11.90;99.90
42365;DHT22;28498;54.400;18.566;2022-10-26T03:04:29;11.80;99.90
42365;DHT22;28498;54.400;18.566;2022-10-26T03:06:56;11.80;99.90
42365;DHT22;28498;54.400;18.566;2022-10-26T03:09:23;11.90;99.90
42365;DHT22;28498;54.400;18.566;2022-10-26T03:11:51;11.90;99.90
42365;DHT22;28498;54.400;18.566;2022-10-26T03:14:19;12.00;99.90
42365;DHT22;28498;54.400;18.566;2022-10-26T03:16:46;12.00;99.90
42365;DHT22;28498;54.400;18.566;2022-10-26T03:19:13;12.00;99.90
42365;DHT22;28498;54.400;18.566;2022-10-26T03:21:40;12.10;99.90
42365;DHT22;28498;54.400;18.566;2022-10-26T03:24:08;12.00;99.90
42365;DHT22;28498;54.400;18.566;2022-10-26T03:26:35;12.00;99.90
42365;DHT22;28498;54.400;18.566;2022-10-26T03:29:02;12.00;99.90
42365;DHT22;28498;54.400;18.566;2022-10-26T03:31:29;12.00;99.90
42365;DHT22;28498;54.400;18.566;2022-10-26T03:33:56;12.00;99.90
42365;DHT22;28498;54.400;18.566;2022-10-26T03:36:23;12.00;99.90
42365;DHT22;28498;54.400;18.566;2022-10-26T03:38:50;12.00;99.90
42365;DHT22;28498;54.400;18.566;2022-10-26T03:41:17;11.90;99.90
42365;DHT22;28498;54.400;18.566;2022-10-26T03:43:44;12.00;99.90
42365;DHT22;28498;54.400;18.566;2022-10-26T03:46:11;11.90;99.90
42365;DHT22;28498;54.400;18.566;2022-10-26T03:48:38;11.80;99.90
42365;DHT22;28498;54.400;18.566;2022-10-26T03:51:05;11.70;99.90
42365;DHT22;28498;54.400;18.566;2022-10-26T03:53:31;11.60;99.90
42365;DHT22;28498;54.400;18.566;2022-10-26T03:55:58;11.60;99.90
42365;DHT22;28498;54.400;18.566;2022-10-26T03:58:25;11.70;99.90
42365;DHT22;28498;54.400;18.566;2022-10-26T04:00:52;11.70;99.90
42365;DHT22;28498;54.400;18.566;2022-10-26T04:03:19;11.80;99.90
42365;DHT22;28498;54.400;18.566;2022-10-26T04:05:46;11.90;99.90
42365;DHT22;28498;54.400;18.566;2022-10-26T04:08:13;11.90;99.90
42365;DHT22;28498;54.400;18.566;2022-10-26T04:10:40;11.90;99.90
42365;DHT22;28498;54.400;18.566;2022-10-26T04:13:09;11.80;99.90
42365;DHT22;28498;54.400;18.566;2022-10-26T04:15:37;11.80;99.90
42365;DHT22;28498;54.400;18.566;2022-10-26T04:18:04;11.80;99.90
42365;DHT22;28498;54.400;18.566;2022-10-26T04:20:32;11.80;99.90
42365;DHT22;28498;54.400;18.566;2022-10-26T04:23:02;11.80;99.90
42365;DHT22;28498;54.400;18.566;2022-10-26T04:25:31;11.80;99.90
42365;DHT22;28498;54.400;18.566;2022-10-26T04:28:00;11.90;99.90
42365;DHT22;28498;54.400;18.566;2022-10-26T04:30:28;11.90;99.90
42365;DHT22;28498;54.400;18.566;2022-10-26T04:32:55;12.00;99.90
42365;DHT22;28498;54.400;18.566;2022-10-26T04:35:22;12.10;99.90
42365;DHT22;28498;54.400;18.566;2022-10-26T04:37:49;12.00;99.90
42365;DHT22;28498;54.400;18.566;2022-10-26T04:40:16;12.10;99.90
42365;DHT22;28498;54.400;18.566;2022-10-26T04:42:46;12.00;99.90
42365;DHT22;28498;54.400;18.566;2022-10-26T04:45:15;12.10;99.90
42365;DHT22;28498;54.400;18.566;2022-10-26T04:47:42;12.00;99.90
42365;DHT22;28498;54.400;18.566;2022-10-26T04:50:11;11.90;99.90
42365;DHT22;28498;54.400;18.566;2022-10-26T04:52:38;11.80;99.90
42365;DHT22;28498;54.400;18.566;2022-10-26T04:55:06;11.70;99.90
42365;DHT22;28498;54.400;18.566;2022-10-26T04:57:34;11.70;99.90
42365;DHT22;28498;54.400;18.566;2022-10-26T05:00:02;11.60;99.90
42365;DHT22;28498;54.400;18.566;2022-10-26T05:02:30;11.50;99.90
42365;DHT22;28498;54.400;18.566;2022-10-26T05:04:57;11.50;99.90
42365;DHT22;28498;54.400;18.566;2022-10-26T05:07:24;11.40;99.90
42365;DHT22;28498;54.400;18.566;2022-10-26T05:09:51;11.40;99.90
42365;DHT22;28498;54.400;18.566;2022-10-26T05:12:18;11.30;99.90
42365;DHT22;28498;54.400;18.566;2022-10-26T05:14:45;11.30;99.90
42365;DHT22;28498;54.400;18.566;2022-10-26T05:17:11;11.30;99.90
42365;DHT22;28498;54.400;18.566;2022-10-26T05:19:38;11.40;99.90
42365;DHT22;28498;54.400;18.566;2022-10-26T05:22:06;11.50;99.90
42365;DHT22;28498;54.400;18.566;2022-10-26T05:24:33;11.40;99.90
42365;DHT22;28498;54.400;18.566;2022-10-26T05:27:00;11.40;99.90
42365;DHT22;28498;54.400;18.566;2022-10-26T05:29:27;11.40;99.90
42365;DHT22;28498;54.400;18.566;2022-10-26T05:31:54;11.40;99.90
42365;DHT22;28498;54.400;18.566;2022-10-26T05:34:21;11.40;99.90
42365;DHT22;28498;54.400;18.566;2022-10-26T05:36:47;11.20;99.90
42365;DHT22;28498;54.400;18.566;2022-10-26T05:39:14;11.20;99.90
42365;DHT22;28498;54.400;18.566;2022-10-26T05:41:41;11.10;99.90
42365;DHT22;28498;54.400;18.566;2022-10-26T05:44:08;11.10;99.90
42365;DHT22;28498;54.400;18.566;2022-10-26T05:46:35;10.90;99.90
42365;DHT22;28498;54.400;18.566;2022-10-26T05:49:02;10.90;99.90
42365;DHT22;28498;54.400;18.566;2022-10-26T05:51:32;10.80;99.90
42365;DHT22;28498;54.400;18.566;2022-10-26T05:53:59;10.90;99.90
42365;DHT22;28498;54.400;18.566;2022-10-26T05:56:35;10.80;99.90
42365;DHT22;28498;54.400;18.566;2022-10-26T05:59:05;10.80;99.90
42365;DHT22;28498;54.400;18.566;2022-10-26T06:06:56;10.90;99.90
42365;DHT22;28498;54.400;18.566;2022-10-26T06:09:24;11.50;99.90
42365;DHT22;28498;54.400;18.566;2022-10-26T06:11:51;11.20;99.90
42365;DHT22;28498;54.400;18.566;2022-10-26T06:14:19;11.10;99.90
42365;DHT22;28498;54.400;18.566;2022-10-26T06:17:04;11.00;99.90
42365;DHT22;28498;54.400;18.566;2022-10-26T06:27:51;11.00;99.90
42365;DHT22;28498;54.400;18.566;2022-10-26T06:30:20;10.90;99.90
42365;DHT22;28498;54.400;18.566;2022-10-26T06:32:49;10.90;99.90
42365;DHT22;28498;54.400;18.566;2022-10-26T06:41:48;10.90;99.90
42365;DHT22;28498;54.400;18.566;2022-10-26T06:44:21;10.90;99.90
42365;DHT22;28498;54.400;18.566;2022-10-26T06:47:08;10.90;99.90
42365;DHT22;28498;54.400;18.566;2022-10-26T06:49:40;10.90;99.90
42365;DHT22;28498;54.400;18.566;2022-10-26T06:52:33;11.00;99.90
42365;DHT22;28498;54.400;18.566;2022-10-26T06:55:01;11.10;99.90
42365;DHT22;28498;54.400;18.566;2022-10-26T06:57:33;11.20;99.90
42365;DHT22;28498;54.400;18.566;2022-10-26T07:00:15;11.20;99.90
42365;DHT22;28498;54.400;18.566;2022-10-26T07:02:44;11.30;99.90
42365;DHT22;28498;54.400;18.566;2022-10-26T07:05:12;11.30;99.90
42365;DHT22;28498;54.400;18.566;2022-10-26T07:07:45;11.40;99.90
42365;DHT22;28498;54.400;18.566;2022-10-26T07:13:55;11.60;99.90
42365;DHT22;28498;54.400;18.566;2022-10-26T07:16:22;11.80;99.90
42365;DHT22;28498;54.400;18.566;2022-10-26T07:18:49;11.80;99.90
42365;DHT22;28498;54.400;18.566;2022-10-26T07:21:16;11.80;99.90
42365;DHT22;28498;54.400;18.566;2022-10-26T07:23:43;12.00;99.90
42365;DHT22;28498;54.400;18.566;2022-10-26T07:29:50;12.10;99.90
42365;DHT22;28498;54.400;18.566;2022-10-26T07:32:17;12.20;99.90
42365;DHT22;28498;54.400;18.566;2022-10-26T07:34:44;12.30;99.90
42365;DHT22;28498;54.400;18.566;2022-10-26T07:37:11;12.40;99.90
42365;DHT22;28498;54.400;18.566;2022-10-26T07:39:38;12.50;99.90
42365;DHT22;28498;54.400;18.566;2022-10-26T07:42:05;12.50;99.90
42365;DHT22;28498;54.400;18.566;2022-10-26T07:44:32;12.50;99.90
42365;DHT22;28498;54.400;18.566;2022-10-26T07:46:59;12.50;99.90
42365;DHT22;28498;54.400;18.566;2022-10-26T07:49:26;12.60;99.90
42365;DHT22;28498;54.400;18.566;2022-10-26T07:51:53;12.60;99.90
42365;DHT22;28498;54.400;18.566;2022-10-26T07:54:20;12.70;99.90
42365;DHT22;28498;54.400;18.566;2022-10-26T07:56:50;12.80;99.90
42365;DHT22;28498;54.400;18.566;2022-10-26T07:59:17;12.90;99.90
42365;DHT22;28498;54.400;18.566;2022-10-26T08:01:44;13.00;99.90
42365;DHT22;28498;54.400;18.566;2022-10-26T08:04:12;13.00;99.90
42365;DHT22;28498;54.400;18.566;2022-10-26T08:06:38;13.10;99.90
42365;DHT22;28498;54.400;18.566;2022-10-26T08:09:05;13.00;99.90
42365;DHT22;28498;54.400;18.566;2022-10-26T08:11:32;13.10;99.90
42365;DHT22;28498;54.400;18.566;2022-10-26T08:14:03;13.20;99.90
42365;DHT22;28498;54.400;18.566;2022-10-26T08:16:30;13.30;99.90
42365;DHT22;28498;54.400;18.566;2022-10-26T08:18:57;13.50;99.90
42365;DHT22;28498;54.400;18.566;2022-10-26T08:21:24;13.70;99.90
42365;DHT22;28498;54.400;18.566;2022-10-26T08:24:05;13.90;99.90
42365;DHT22;28498;54.400;18.566;2022-10-26T08:26:33;14.00;99.90
42365;DHT22;28498;54.400;18.566;2022-10-26T08:29:00;14.20;99.90
42365;DHT22;28498;54.400;18.566;2022-10-26T08:31:27;14.30;99.90
42365;DHT22;28498;54.400;18.566;2022-10-26T08:33:54;14.30;99.90
42365;DHT22;28498;54.400;18.566;2022-10-26T08:36:24;14.20;99.90
42365;DHT22;28498;54.400;18.566;2022-10-26T08:38:52;14.40;99.90
42365;DHT22;28498;54.400;18.566;2022-10-26T08:41:40;14.00;99.90
42365;DHT22;28498;54.400;18.566;2022-10-26T08:44:24;13.90;99.90
42365;DHT22;28498;54.400;18.566;2022-10-26T08:50:50;13.60;99.90
42365;DHT22;28498;54.400;18.566;2022-10-26T08:59:56;13.90;99.90
42365;DHT22;28498;54.400;18.566;2022-10-26T09:02:23;13.90;99.90
42365;DHT22;28498;54.400;18.566;2022-10-26T09:04:51;14.00;99.90
42365;DHT22;28498;54.400;18.566;2022-10-26T09:07:39;14.10;99.90
42365;DHT22;28498;54.400;18.566;2022-10-26T09:10:38;14.40;99.90
42365;DHT22;28498;54.400;18.566;2022-10-26T09:13:21;14.80;99.90
42365;DHT22;28498;54.400;18.566;2022-10-26T09:16:08;14.90;99.90
42365;DHT22;28498;54.400;18.566;2022-10-26T09:19:00;14.90;99.90
42365;DHT22;28498;54.400;18.566;2022-10-26T09:21:35;14.90;99.90
42365;DHT22;28498;54.400;18.566;2022-10-26T09:24:11;15.00;99.90
42365;DHT22;28498;54.400;18.566;2022-10-26T09:29:45;15.10;99.90
42365;DHT22;28498;54.400;18.566;2022-10-26T09:32:30;14.90;99.90
42365;DHT22;28498;54.400;18.566;2022-10-26T09:35:18;14.80;99.90
42365;DHT22;28498;54.400;18.566;2022-10-26T09:38:01;14.80;99.90
42365;DHT22;28498;54.400;18.566;2022-10-26T09:45:36;15.00;99.90
42365;DHT22;28498;54.400;18.566;2022-10-26T09:48:15;15.20;99.90
42365;DHT22;28498;54.400;18.566;2022-10-26T09:50:47;15.40;99.90
42365;DHT22;28498;54.400;18.566;2022-10-26T09:53:15;15.70;99.90
42365;DHT22;28498;54.400;18.566;2022-10-26T09:55:45;15.70;99.90
42365;DHT22;28498;54.400;18.566;2022-10-26T09:58:22;15.20;99.90
42365;DHT22;28498;54.400;18.566;2022-10-26T10:00:50;15.10;99.90
42365;DHT22;28498;54.400;18.566;2022-10-26T10:03:23;15.00;99.90
42365;DHT22;28498;54.400;18.566;2022-10-26T10:05:51;15.10;99.90
42365;DHT22;28498;54.400;18.566;2022-10-26T10:08:24;15.30;99.90
42365;DHT22;28498;54.400;18.566;2022-10-26T10:13:28;15.80;99.90
42365;DHT22;28498;54.400;18.566;2022-10-26T10:18:57;15.90;99.90
42365;DHT22;28498;54.400;18.566;2022-10-26T10:21:37;16.20;99.90
42365;DHT22;28498;54.400;18.566;2022-10-26T10:24:25;16.10;99.90
42365;DHT22;28498;54.400;18.566;2022-10-26T10:27:04;16.00;99.90
42365;DHT22;28498;54.400;18.566;2022-10-26T10:29:33;16.10;99.90
42365;DHT22;28498;54.400;18.566;2022-10-26T10:35:52;16.00;99.90
42365;DHT22;28498;54.400;18.566;2022-10-26T10:38:20;16.00;99.90
42365;DHT22;28498;54.400;18.566;2022-10-26T10:40:58;15.90;99.90
42365;DHT22;28498;54.400;18.566;2022-10-26T10:43:26;15.70;99.90
42365;DHT22;28498;54.400;18.566;2022-10-26T10:45:56;15.70;99.90
42365;DHT22;28498;54.400;18.566;2022-10-26T10:48:27;15.50;99.90
42365;DHT22;28498;54.400;18.566;2022-10-26T10:50:59;15.50;99.90
42365;DHT22;28498;54.400;18.566;2022-10-26T10:53:44;15.60;99.90
42365;DHT22;28498;54.400;18.566;2022-10-26T10:56:46;15.70;99.90
42365;DHT22;28498;54.400;18.566;2022-10-26T11:07:43;15.50;99.90
42365;DHT22;28498;54.400;18.566;2022-10-26T11:10:14;15.60;99.90
42365;DHT22;28498;54.400;18.566;2022-10-26T11:12:50;15.70;99.90
42365;DHT22;28498;54.400;18.566;2022-10-26T11:15:24;15.80;99.90
42365;DHT22;28498;54.400;18.566;2022-10-26T11:17:57;15.70;99.90
42365;DHT22;28498;54.400;18.566;2022-10-26T11:20:26;15.80;99.90
42365;DHT22;28498;54.400;18.566;2022-10-26T11:23:07;15.80;99.90
42365;DHT22;28498;54.400;18.566;2022-10-26T11:26:44;15.70;99.90
42365;DHT22;28498;54.400;18.566;2022-10-26T11:29:04;15.50;99.90
42365;DHT22;28498;54.400;18.566;2022-10-26T11:31:37;15.30;99.90
42365;DHT22;28498;54.400;18.566;2022-10-26T11:36:38;15.10;99.90
42365;DHT22;28498;54.400;18.566;2022-10-26T11:39:31;14.90;99.90
42365;DHT22;28498;54.400;18.566;2022-10-26T11:42:10;14.90;99.90
42365;DHT22;28498;54.400;18.566;2022-10-26T11:44:47;15.00;99.90
42365;DHT22;28498;54.400;18.566;2022-10-26T11:47:34;14.90;99.90
42365;DHT22;28498;54.400;18.566;2022-10-26T11:50:10;15.00;99.90
42365;DHT22;28498;54.400;18.566;2022-10-26T11:52:59;15.30;99.90
42365;DHT22;28498;54.400;18.566;2022-10-26T11:55:28;15.40;99.90
42365;DHT22;28498;54.400;18.566;2022-10-26T11:57:56;15.30;99.90
42365;DHT22;28498;54.400;18.566;2022-10-26T12:00:25;15.20;99.90
42365;DHT22;28498;54.400;18.566;2022-10-26T12:03:09;14.90;99.90
42365;DHT22;28498;54.400;18.566;2022-10-26T12:05:42;15.00;99.90
42365;DHT22;28498;54.400;18.566;2022-10-26T12:08:20;15.10;99.90
42365;DHT22;28498;54.400;18.566;2022-10-26T12:11:05;15.10;99.90
42365;DHT22;28498;54.400;18.566;2022-10-26T12:16:21;15.30;99.90
42365;DHT22;28498;54.400;18.566;2022-10-26T12:18:59;15.30;99.90
42365;DHT22;28498;54.400;18.566;2022-10-26T12:21:31;15.20;99.90
42365;DHT22;28498;54.400;18.566;2022-10-26T12:24:29;15.20;99.90
42365;DHT22;28498;54.400;18.566;2022-10-26T12:27:04;15.30;99.90
42365;DHT22;28498;54.400;18.566;2022-10-26T12:29:45;15.30;99.90
42365;DHT22;28498;54.400;18.566;2022-10-26T12:35:01;15.00;99.90
42365;DHT22;28498;54.400;18.566;2022-10-26T12:37:35;15.00;99.90
42365;DHT22;28498;54.400;18.566;2022-10-26T12:42:57;14.70;99.90
42365;DHT22;28498;54.400;18.566;2022-10-26T12:45:24;14.60;99.90
42365;DHT22;28498;54.400;18.566;2022-10-26T12:50:24;14.70;99.90
42365;DHT22;28498;54.400;18.566;2022-10-26T13:09:31;14.50;99.90
42365;DHT22;28498;54.400;18.566;2022-10-26T13:12:01;14.30;99.90
42365;DHT22;28498;54.400;18.566;2022-10-26T13:14:35;14.30;99.90
42365;DHT22;28498;54.400;18.566;2022-10-26T13:17:04;14.20;99.90
42365;DHT22;28498;54.400;18.566;2022-10-26T13:19:41;14.20;99.90
42365;DHT22;28498;54.400;18.566;2022-10-26T13:22:14;14.20;99.90
42365;DHT22;28498;54.400;18.566;2022-10-26T13:24:50;14.20;99.90
42365;DHT22;28498;54.400;18.566;2022-10-26T13:32:52;14.30;99.90
42365;DHT22;28498;54.400;18.566;2022-10-26T13:35:22;14.40;99.90
42365;DHT22;28498;54.400;18.566;2022-10-26T13:37:52;14.40;99.90
42365;DHT22;28498;54.400;18.566;2022-10-26T13:40:23;14.40;99.90
42365;DHT22;28498;54.400;18.566;2022-10-26T13:42:56;14.30;99.90
42365;DHT22;28498;54.400;18.566;2022-10-26T13:45:31;14.20;99.90
42365;DHT22;28498;54.400;18.566;2022-10-26T13:51:49;14.30;99.90
42365;DHT22;28498;54.400;18.566;2022-10-26T13:54:31;14.20;99.90
42365;DHT22;28498;54.400;18.566;2022-10-26T13:57:26;14.20;99.90
42365;DHT22;28498;54.400;18.566;2022-10-26T13:59:57;14.20;99.90
42365;DHT22;28498;54.400;18.566;2022-10-26T14:02:29;14.30;99.90
42365;DHT22;28498;54.400;18.566;2022-10-26T14:05:02;14.30;99.90
42365;DHT22;28498;54.400;18.566;2022-10-26T14:07:49;14.30;99.90
42365;DHT22;28498;54.400;18.566;2022-10-26T14:10:40;14.40;99.90
42365;DHT22;28498;54.400;18.566;2022-10-26T14:13:13;14.40;99.90
42365;DHT22;28498;54.400;18.566;2022-10-26T14:15:45;14.50;99.90
42365;DHT22;28498;54.400;18.566;2022-10-26T14:18:22;14.40;99.90
42365;DHT22;28498;54.400;18.566;2022-10-26T14:23:59;14.20;99.90
42365;DHT22;28498;54.400;18.566;2022-10-26T14:26:40;14.10;99.90
42365;DHT22;28498;54.400;18.566;2022-10-26T14:29:18;14.10;99.90
42365;DHT22;28498;54.400;18.566;2022-10-26T14:31:47;14.10;99.90
42365;DHT22;28498;54.400;18.566;2022-10-26T14:34:16;14.10;99.90
42365;DHT22;28498;54.400;18.566;2022-10-26T14:36:57;14.00;99.90
42365;DHT22;28498;54.400;18.566;2022-10-26T14:39:37;14.00;99.90
42365;DHT22;28498;54.400;18.566;2022-10-26T14:42:32;14.00;99.90
42365;DHT22;28498;54.400;18.566;2022-10-26T14:45:00;13.90;99.90
42365;DHT22;28498;54.400;18.566;2022-10-26T14:47:30;13.80;99.90
42365;DHT22;28498;54.400;18.566;2022-10-26T14:49:59;13.80;99.90
42365;DHT22;28498;54.400;18.566;2022-10-26T14:52:33;13.80;99.90
42365;DHT22;28498;54.400;18.566;2022-10-26T14:55:13;13.70;99.90
42365;DHT22;28498;54.400;18.566;2022-10-26T14:57:42;13.70;99.90
42365;DHT22;28498;54.400;18.566;2022-10-26T15:00:18;13.70;99.90
42365;DHT22;28498;54.400;18.566;2022-10-26T15:02:48;13.60;99.90
42365;DHT22;28498;54.400;18.566;2022-10-26T15:07:43;13.60;99.90
42365;DHT22;28498;54.400;18.566;2022-10-26T15:15:42;13.50;99.90
42365;DHT22;28498;54.400;18.566;2022-10-26T15:18:27;13.40;99.90
42365;DHT22;28498;54.400;18.566;2022-10-26T15:20:55;13.40;99.90
42365;DHT22;28498;54.400;18.566;2022-10-26T15:23:24;13.40;99.90
42365;DHT22;28498;54.400;18.566;2022-10-26T15:25:56;13.40;99.90
42365;DHT22;28498;54.400;18.566;2022-10-26T15:28:37;13.30;99.90
42365;DHT22;28498;54.400;18.566;2022-10-26T15:33:41;13.20;99.90
42365;DHT22;28498;54.400;18.566;2022-10-26T15:36:20;13.20;99.90
42365;DHT22;28498;54.400;18.566;2022-10-26T15:38:48;13.10;99.90
42365;DHT22;28498;54.400;18.566;2022-10-26T15:41:22;13.00;99.90
42365;DHT22;28498;54.400;18.566;2022-10-26T15:43:51;12.90;99.90
42365;DHT22;28498;54.400;18.566;2022-10-26T15:46:19;12.80;99.90
42365;DHT22;28498;54.400;18.566;2022-10-26T15:48:55;12.70;99.90
42365;DHT22;28498;54.400;18.566;2022-10-26T15:51:22;12.60;99.90
42365;DHT22;28498;54.400;18.566;2022-10-26T15:53:50;12.50;99.90
42365;DHT22;28498;54.400;18.566;2022-10-26T15:56:22;12.30;99.90
42365;DHT22;28498;54.400;18.566;2022-10-26T15:58:50;12.20;99.90
42365;DHT22;28498;54.400;18.566;2022-10-26T16:01:22;12.10;99.90
42365;DHT22;28498;54.400;18.566;2022-10-26T16:03:50;12.00;99.90
42365;DHT22;28498;54.400;18.566;2022-10-26T16:06:28;11.90;99.90
42365;DHT22;28498;54.400;18.566;2022-10-26T16:08:57;11.80;99.90
42365;DHT22;28498;54.400;18.566;2022-10-26T16:11:26;11.70;99.90
42365;DHT22;28498;54.400;18.566;2022-10-26T16:13:53;11.50;99.90
42365;DHT22;28498;54.400;18.566;2022-10-26T16:16:25;11.40;99.90
42365;DHT22;28498;54.400;18.566;2022-10-26T16:18:53;11.40;99.90
42365;DHT22;28498;54.400;18.566;2022-10-26T16:21:37;11.30;99.90
42365;DHT22;28498;54.400;18.566;2022-10-26T16:24:04;11.40;99.90
42365;DHT22;28498;54.400;18.566;2022-10-26T16:26:31;11.40;99.90
42365;DHT22;28498;54.400;18.566;2022-10-26T16:28:59;11.40;99.90
42365;DHT22;28498;54.400;18.566;2022-10-26T16:31:26;11.40;99.90
42365;DHT22;28498;54.400;18.566;2022-10-26T16:33:53;11.40;99.90
42365;DHT22;28498;54.400;18.566;2022-10-26T16:36:20;11.50;99.90
42365;DHT22;28498;54.400;18.566;2022-10-26T16:38:47;11.60;99.90
42365;DHT22;28498;54.400;18.566;2022-10-26T16:41:14;11.60;99.90
42365;DHT22;28498;54.400;18.566;2022-10-26T16:43:45;11.60;99.90
42365;DHT22;28498;54.400;18.566;2022-10-26T16:46:19;11.70;99.90
42365;DHT22;28498;54.400;18.566;2022-10-26T16:48:48;11.70;99.90
42365;DHT22;28498;54.400;18.566;2022-10-26T16:51:19;11.70;99.90
42365;DHT22;28498;54.400;18.566;2022-10-26T16:53:47;11.70;99.90
42365;DHT22;28498;54.400;18.566;2022-10-26T16:56:17;11.70;99.90
42365;DHT22;28498;54.400;18.566;2022-10-26T16:58:45;11.80;99.90
42365;DHT22;28498;54.400;18.566;2022-10-26T17:01:13;11.80;99.90
42365;DHT22;28498;54.400;18.566;2022-10-26T17:03:48;11.80;99.90
42365;DHT22;28498;54.400;18.566;2022-10-26T17:06:16;11.80;99.90
42365;DHT22;28498;54.400;18.566;2022-10-26T17:08:44;11.80;99.90
42365;DHT22;28498;54.400;18.566;2022-10-26T17:11:16;11.80;99.90
42365;DHT22;28498;54.400;18.566;2022-10-26T17:13:43;11.80;99.90
42365;DHT22;28498;54.400;18.566;2022-10-26T17:16:16;11.90;99.90
42365;DHT22;28498;54.400;18.566;2022-10-26T17:18:44;11.90;99.90
42365;DHT22;28498;54.400;18.566;2022-10-26T17:21:13;11.80;99.90
42365;DHT22;28498;54.400;18.566;2022-10-26T17:23:41;11.80;99.90
42365;DHT22;28498;54.400;18.566;2022-10-26T17:26:09;11.70;99.90
42365;DHT22;28498;54.400;18.566;2022-10-26T17:28:37;11.60;99.90
42365;DHT22;28498;54.400;18.566;2022-10-26T17:31:12;11.50;99.90
42365;DHT22;28498;54.400;18.566;2022-10-26T17:33:41;11.30;99.90
42365;DHT22;28498;54.400;18.566;2022-10-26T17:36:11;11.20;99.90
42365;DHT22;28498;54.400;18.566;2022-10-26T17:38:40;11.00;99.90
42365;DHT22;28498;54.400;18.566;2022-10-26T17:41:09;10.90;99.90
42365;DHT22;28498;54.400;18.566;2022-10-26T17:43:38;10.80;99.90
42365;DHT22;28498;54.400;18.566;2022-10-26T17:46:08;10.60;99.90
42365;DHT22;28498;54.400;18.566;2022-10-26T17:48:36;10.50;99.90
42365;DHT22;28498;54.400;18.566;2022-10-26T17:51:06;10.40;99.90
42365;DHT22;28498;54.400;18.566;2022-10-26T17:53:33;10.40;99.90
42365;DHT22;28498;54.400;18.566;2022-10-26T17:56:06;10.40;99.90
42365;DHT22;28498;54.400;18.566;2022-10-26T17:58:34;10.50;99.90
42365;DHT22;28498;54.400;18.566;2022-10-26T18:01:05;10.60;99.90
42365;DHT22;28498;54.400;18.566;2022-10-26T18:03:33;10.50;99.90
42365;DHT22;28498;54.400;18.566;2022-10-26T18:06:01;10.40;99.90
42365;DHT22;28498;54.400;18.566;2022-10-26T18:08:31;10.40;99.90